LYBE/BEG METAR and TAF weather

Enter ICAO airport designator
Example: see airport list
Station Type Date Time Source
LYBE METAR 2016/09/29 20:00 UTC NOAA

LYBE 292000Z 14006KT CAVOK 16/10 Q1022 NOSIG


Station Type Date Time Source
LYBE Decoded METAR 2016/09/29 20:00 UTC NOAA

Beograd / Surcin, Serbia and Montenegro (LYBE) 44-49N 020-17E 99M
Sep 29, 2016 - 04:00 PM EDT / 2016.09.29 2000 UTC
Wind: from the SE (140 degrees) at 7 MPH (6 KT):0
Visibility: greater than 7 mile(s):0
Temperature: 60 F (16 C)
Dew Point: 50 F (10 C)
Relative Humidity: 67%
Pressure (altimeter): 30.18 in. Hg (1022 hPa)
ob: LYBE 292000Z 14006KT CAVOK 16/10 Q1022 NOSIG
cycle: 20

Station Type Date Time Source
LYBE TAF 2016/09/29 18:30 UTC NOAA

TAF LYBE 291700Z 2918/3018 18003KT CAVOK TX24/3013Z TN09/3004Z